Аэропорт: Атырау. Атырау

ICAO: UATG

METAR:
2024-05-18 17:00:00
UATG 181700Z 31004MPS 9999 SCT033CB 15/04 Q1012 NOSIG RMK QFE761/1015
TAF:
2024-05-18 11:00:00
TAF UATG 181100Z 1812/1912 34007G12MPS 9999 BKN033CB TX21/1910Z TN10/1902Z 
  BECMG 1814/1816 31007MPS